createdAt,value
2018-09-10T00:00:33.850Z,102168.83
2018-09-10T00:01:34.269Z,102169.06
2018-09-10T00:02:34.548Z,102169.27
2018-09-10T00:03:34.834Z,102169.60
2018-09-10T00:04:35.248Z,102170.18
2018-09-10T00:05:35.435Z,102170.48
2018-09-10T00:05:45.400Z,102173.83
2018-09-10T00:06:46.773Z,102171.32
2018-09-10T00:07:47.314Z,102171.66
2018-09-10T00:08:47.670Z,102172.00
2018-09-10T00:09:47.970Z,102172.08
2018-09-10T00:10:48.332Z,102171.63
2018-09-10T00:11:48.661Z,102171.80
2018-09-10T00:12:48.853Z,102171.80
2018-09-10T00:13:49.139Z,102171.59
2018-09-10T00:14:49.416Z,102171.25
2018-09-10T00:15:49.793Z,102171.64
2018-09-10T00:16:50.113Z,102171.47
2018-09-10T00:17:50.502Z,102171.55
2018-09-10T00:18:50.805Z,102172.29
2018-09-10T00:19:50.997Z,102172.37
2018-09-10T00:20:51.252Z,102172.20
2018-09-10T00:21:51.528Z,102172.37
2018-09-10T00:22:51.932Z,102172.70
2018-09-10T00:23:52.285Z,102172.88
2018-09-10T00:24:52.714Z,102173.22
2018-09-10T00:25:53.252Z,102173.22
2018-09-10T00:26:53.660Z,102173.14
2018-09-10T00:27:54.022Z,102173.14
2018-09-10T00:28:54.344Z,102173.14
2018-09-10T00:29:54.702Z,102173.47
2018-09-10T00:30:55.154Z,102173.56
2018-09-10T00:31:55.456Z,102173.77
2018-09-10T00:32:56.352Z,102173.34
2018-09-10T00:33:56.813Z,102172.95
2018-09-10T00:34:57.167Z,102172.91
2018-09-10T00:35:57.441Z,102172.84
2018-09-10T00:36:58.017Z,102172.77
2018-09-10T00:37:58.446Z,102172.13
2018-09-10T00:38:58.943Z,102172.03
2018-09-10T00:39:59.390Z,102171.11
2018-09-10T00:40:59.842Z,102170.80
2018-09-10T00:42:00.033Z,102170.97
2018-09-10T00:43:00.310Z,102171.09
2018-09-10T00:44:00.557Z,102170.95
2018-09-10T00:45:00.603Z,102170.48
2018-09-10T00:46:01.191Z,102170.94
2018-09-10T00:47:01.440Z,102172.02
2018-09-10T00:48:01.742Z,102172.56
2018-09-10T00:48:10.131Z,102192.05
2018-09-10T00:49:11.327Z,102180.81
2018-09-10T00:50:11.530Z,102180.81
2018-09-10T00:51:11.800Z,102181.15
2018-09-10T00:52:11.976Z,102181.58
2018-09-10T00:53:12.426Z,102181.88
2018-09-10T00:54:13.650Z,102181.88
2018-09-10T00:55:13.033Z,102182.22
2018-09-10T00:56:13.157Z,102182.51
2018-09-10T00:57:13.337Z,102182.68
2018-09-10T00:58:13.585Z,102182.80
2018-09-10T00:59:13.884Z,102183.00
2018-09-10T01:00:14.356Z,102182.75
2018-09-10T01:01:14.696Z,102182.70
2018-09-10T01:02:15.090Z,102182.27
2018-09-10T01:03:14.338Z,102182.34
2018-09-10T01:04:15.719Z,102182.20
2018-09-10T01:05:15.150Z,102182.03
2018-09-10T01:06:16.512Z,102182.23
2018-09-10T01:07:16.817Z,102182.23
2018-09-10T01:08:17.065Z,102182.09
2018-09-10T01:09:17.578Z,102181.76
2018-09-10T01:10:17.896Z,102181.45
2018-09-10T01:11:18.245Z,102181.45
2018-09-10T01:12:18.674Z,102181.23
2018-09-10T01:13:18.857Z,102181.40
2018-09-10T01:14:19.093Z,102181.09
2018-09-10T01:15:19.440Z,102181.52
2018-09-10T01:16:19.813Z,102181.34
2018-09-10T01:17:20.320Z,102181.98
2018-09-10T01:18:20.580Z,102182.40
2018-09-10T01:19:20.944Z,102182.40
2018-09-10T01:20:21.275Z,102182.99
2018-09-10T01:21:21.896Z,102182.83
2018-09-10T01:22:22.135Z,102182.99
2018-09-10T01:23:22.348Z,102183.33
2018-09-10T01:24:22.548Z,102183.55
2018-09-10T01:25:22.815Z,102183.81
2018-09-10T01:26:22.973Z,102184.06
2018-09-10T01:27:23.234Z,102183.81
2018-09-10T01:28:23.742Z,102184.20
2018-09-10T01:29:24.065Z,102184.54
2018-09-10T01:30:24.839Z,102184.28
2018-09-10T01:31:25.136Z,102184.34
2018-09-10T01:32:25.438Z,102184.39
2018-09-10T01:33:25.829Z,102183.68
2018-09-10T01:34:26.113Z,102183.50
2018-09-10T01:34:34.520Z,102185.36
2018-09-10T01:35:35.754Z,102176.59
2018-09-10T01:36:36.033Z,102176.09
2018-09-10T01:37:36.326Z,102176.59
2018-09-10T01:38:36.733Z,102177.28
2018-09-10T01:39:35.898Z,102177.70
2018-09-10T01:40:37.304Z,102178.13
2018-09-10T01:41:37.518Z,102178.24
2018-09-10T01:42:38.025Z,102177.98
2018-09-10T01:43:38.517Z,102178.42
2018-09-10T01:44:38.726Z,102178.36
2018-09-10T01:45:39.099Z,102178.73
2018-09-10T01:46:39.292Z,102179.16
2018-09-10T01:47:39.738Z,102179.88
2018-09-10T01:48:39.916Z,102180.05
2018-09-10T01:49:40.132Z,102180.59
2018-09-10T01:50:40.416Z,102181.52
2018-09-10T01:51:40.645Z,102181.89
2018-09-10T01:52:40.888Z,102182.48
2018-09-10T01:53:41.233Z,102182.75
2018-09-10T01:54:40.508Z,102183.38
2018-09-10T01:55:41.966Z,102184.22
2018-09-10T01:56:42.221Z,102185.23
2018-09-10T01:57:42.490Z,102185.66
2018-09-10T01:58:42.838Z,102186.77
2018-09-10T01:59:43.102Z,102187.02
2018-09-10T02:00:43.387Z,102187.70
2018-09-10T02:01:42.716Z,102187.84
2018-09-10T02:02:43.939Z,102187.84
2018-09-10T02:03:43.506Z,102188.06
2018-09-10T02:04:45.026Z,102188.20
2018-09-10T02:05:45.434Z,102188.79
2018-09-10T02:06:45.757Z,102189.52
2018-09-10T02:07:46.085Z,102189.95
2018-09-10T02:08:46.394Z,102190.34
2018-09-10T02:09:46.950Z,102190.84
2018-09-10T02:10:47.609Z,102190.93
2018-09-10T02:11:48.408Z,102191.32
2018-09-10T02:12:48.763Z,102191.66
2018-09-10T02:13:49.236Z,102191.16
2018-09-10T02:14:49.802Z,102190.90
2018-09-10T02:15:50.048Z,102190.90
2018-09-10T02:16:50.285Z,102190.90
2018-09-10T02:17:50.494Z,102191.66
2018-09-10T02:18:50.854Z,102192.00
2018-09-10T02:19:51.266Z,102191.49
2018-09-10T02:20:51.456Z,102191.10
2018-09-10T02:21:51.711Z,102190.45
2018-09-10T02:22:00.052Z,102178.05
2018-09-10T02:23:01.682Z,102174.75
2018-09-10T02:24:02.213Z,102174.41
2018-09-10T02:25:02.629Z,102173.95
2018-09-10T02:26:02.950Z,102173.53
2018-09-10T02:27:03.183Z,102173.19
2018-09-10T02:28:03.295Z,102173.19
2018-09-10T02:29:03.872Z,102172.84
2018-09-10T02:30:03.149Z,102173.24
2018-09-10T02:31:04.417Z,102173.46
2018-09-10T02:32:04.887Z,102172.78
2018-09-10T02:33:05.152Z,102172.24
2018-09-10T02:34:06.058Z,102171.81
2018-09-10T02:35:06.662Z,102171.81
2018-09-10T02:36:07.099Z,102171.62
2018-09-10T02:37:07.347Z,102170.77
2018-09-10T02:38:07.589Z,102170.23
2018-09-10T02:39:07.834Z,102169.63
2018-09-10T02:40:08.574Z,102169.13
2018-09-10T02:41:08.852Z,102168.19
2018-09-10T02:42:09.348Z,102167.25
2018-09-10T02:43:09.946Z,102166.02
2018-09-10T02:44:10.242Z,102165.34
2018-09-10T02:45:10.602Z,102164.73
2018-09-10T02:46:10.911Z,102164.23
2018-09-10T02:47:11.434Z,102164.18
2018-09-10T02:48:12.071Z,102163.84
2018-09-10T02:49:12.339Z,102164.04
2018-09-10T02:50:12.770Z,102163.78
2018-09-10T02:51:13.213Z,102163.86
2018-09-10T02:52:13.659Z,102164.48
2018-09-10T02:53:14.073Z,102164.60
2018-09-10T02:54:14.531Z,102165.06
2018-09-10T02:55:15.016Z,102166.11
2018-09-10T02:56:14.475Z,102167.12
2018-09-10T02:57:15.750Z,102168.06
2018-09-10T02:58:16.129Z,102168.94
2018-09-10T02:59:16.428Z,102170.30
2018-09-10T03:00:16.735Z,102171.31
2018-09-10T03:01:17.529Z,102171.83
2018-09-10T03:02:18.244Z,102172.12
2018-09-10T03:03:18.624Z,102172.12
2018-09-10T03:04:18.914Z,102171.98
2018-09-10T03:05:19.272Z,102171.98
2018-09-10T03:06:19.990Z,102171.84
2018-09-10T03:07:19.261Z,102171.33
2018-09-10T03:08:20.541Z,102171.20
2018-09-10T03:09:21.085Z,102171.66
2018-09-10T03:09:29.482Z,102171.66
2018-09-10T03:10:31.075Z,102162.89
2018-09-10T03:11:31.476Z,102163.15
2018-09-10T03:12:31.834Z,102163.23
2018-09-10T03:13:32.073Z,102163.86
2018-09-10T03:14:32.664Z,102164.45
2018-09-10T03:15:32.948Z,102165.30
2018-09-10T03:16:33.309Z,102166.02
2018-09-10T03:17:33.518Z,102166.89
2018-09-10T03:18:33.860Z,102167.86
2018-09-10T03:19:34.076Z,102167.80
2018-09-10T03:20:34.542Z,102168.40
2018-09-10T03:21:34.859Z,102168.73
2018-09-10T03:22:35.713Z,102168.52
2018-09-10T03:23:36.021Z,102168.55
2018-09-10T03:24:36.541Z,102168.72
2018-09-10T03:25:37.072Z,102168.16
2018-09-10T03:26:37.528Z,102167.77
2018-09-10T03:27:37.991Z,102167.28
2018-09-10T03:28:38.140Z,102167.79
2018-09-10T03:29:38.424Z,102167.40
2018-09-10T03:30:38.870Z,102167.52
2018-09-10T03:31:39.312Z,102167.30
2018-09-10T03:32:39.667Z,102167.58
2018-09-10T03:33:40.008Z,102167.36
2018-09-10T03:34:39.530Z,102167.22
2018-09-10T03:35:40.891Z,102166.48
2018-09-10T03:36:41.188Z,102165.75
2018-09-10T03:37:41.471Z,102165.31
2018-09-10T03:38:41.830Z,102164.32
2018-09-10T03:39:42.100Z,102163.70
2018-09-10T03:40:41.355Z,102162.66
2018-09-10T03:41:42.965Z,102162.22
2018-09-10T03:42:43.284Z,102161.99
2018-09-10T03:43:43.725Z,102160.61
2018-09-10T03:44:44.003Z,102159.91
2018-09-10T03:45:44.464Z,102159.44
2018-09-10T03:46:44.945Z,102158.65
2018-09-10T03:47:45.803Z,102157.32
2018-09-10T03:48:46.331Z,102156.80
2018-09-10T03:49:46.637Z,102156.66
2018-09-10T03:50:46.916Z,102156.26
2018-09-10T03:51:47.307Z,102156.58
2018-09-10T03:52:47.586Z,102157.03
2018-09-10T03:53:47.927Z,102157.48
2018-09-10T03:53:56.318Z,102160.50
2018-09-10T03:54:57.833Z,102155.53
2018-09-10T03:55:56.880Z,102155.70
2018-09-10T03:56:58.319Z,102156.02
2018-09-10T03:57:57.690Z,102156.27
2018-09-10T03:58:59.028Z,102156.74
2018-09-10T03:59:59.272Z,102157.30
2018-09-10T04:00:59.548Z,102157.22
2018-09-10T04:01:59.823Z,102157.39
2018-09-10T04:03:00.156Z,102157.78
2018-09-10T04:04:00.547Z,102157.95
2018-09-10T04:05:00.897Z,102158.55
2018-09-10T04:06:01.297Z,102159.06
2018-09-10T04:07:01.761Z,102159.31
2018-09-10T04:08:01.356Z,102160.02
2018-09-10T04:09:02.675Z,102160.30
2018-09-10T04:10:02.977Z,102160.93
2018-09-10T04:11:03.388Z,102161.30
2018-09-10T04:12:03.675Z,102161.16
2018-09-10T04:13:04.194Z,102161.07
2018-09-10T04:14:04.634Z,102160.84
2018-09-10T04:15:04.926Z,102160.88
2018-09-10T04:16:05.629Z,102160.73
2018-09-10T04:17:06.016Z,102160.85
2018-09-10T04:18:05.308Z,102160.97
2018-09-10T04:19:06.794Z,102160.74
2018-09-10T04:20:07.269Z,102161.02
2018-09-10T04:21:07.563Z,102160.89
2018-09-10T04:22:07.938Z,102160.75
2018-09-10T04:23:08.269Z,102160.86
2018-09-10T04:24:08.702Z,102160.89
2018-09-10T04:25:09.566Z,102160.75
2018-09-10T04:26:09.987Z,102161.12
2018-09-10T04:27:09.368Z,102161.31
2018-09-10T04:28:10.947Z,102161.01
2018-09-10T04:29:11.503Z,102161.69
2018-09-10T04:30:12.003Z,102162.39
2018-09-10T04:31:12.627Z,102162.59
2018-09-10T04:32:13.158Z,102163.19
2018-09-10T04:33:13.588Z,102162.50
2018-09-10T04:34:13.933Z,102162.50
2018-09-10T04:35:14.373Z,102162.34
2018-09-10T04:36:14.789Z,102162.34
2018-09-10T04:37:14.216Z,102161.66
2018-09-10T04:38:15.642Z,102162.17
2018-09-10T04:39:17.091Z,102161.83
2018-09-10T04:40:16.522Z,102161.92
2018-09-10T04:41:17.250Z,102162.31
2018-09-10T04:42:17.759Z,102162.48
2018-09-10T04:43:17.010Z,102161.92
2018-09-10T04:43:26.949Z,102159.80
2018-09-10T04:44:27.597Z,102157.52
2018-09-10T04:45:28.136Z,102157.68
2018-09-10T04:46:28.591Z,102157.94
2018-09-10T04:47:28.977Z,102158.73
2018-09-10T04:48:29.264Z,102158.98
2018-09-10T04:49:29.704Z,102159.74
2018-09-10T04:50:30.001Z,102160.28
2018-09-10T04:51:30.461Z,102160.88
2018-09-10T04:52:31.720Z,102161.89
2018-09-10T04:53:30.983Z,102162.91
2018-09-10T04:54:31.224Z,102163.75
2018-09-10T04:55:31.653Z,102165.02
2018-09-10T04:56:32.013Z,102166.09
2018-09-10T04:57:32.301Z,102167.53
2018-09-10T04:58:32.559Z,102168.98
2018-09-10T04:59:33.284Z,102170.08
2018-09-10T05:00:33.485Z,102172.12
2018-09-10T05:01:33.748Z,102173.55
2018-09-10T05:02:34.222Z,102175.59
2018-09-10T05:03:34.518Z,102176.78
2018-09-10T05:04:34.987Z,102178.55
2018-09-10T05:05:34.315Z,102180.13
2018-09-10T05:06:35.693Z,102180.73
2018-09-10T05:07:36.008Z,102182.05
2018-09-10T05:08:36.216Z,102182.64
2018-09-10T05:09:36.655Z,102183.41
2018-09-10T05:10:36.869Z,102184.56
2018-09-10T05:11:37.050Z,102185.41
2018-09-10T05:12:37.309Z,102186.52
2018-09-10T05:13:37.742Z,102187.70
2018-09-10T05:14:37.943Z,102188.86
2018-09-10T05:15:38.511Z,102190.27
2018-09-10T05:16:38.993Z,102191.29
2018-09-10T05:17:39.365Z,102192.62
2018-09-10T05:18:39.614Z,102193.95
2018-09-10T05:19:40.099Z,102195.27
2018-09-10T05:20:40.436Z,102196.40
2018-09-10T05:21:39.657Z,102197.70
2018-09-10T05:22:41.063Z,102198.91
2018-09-10T05:23:41.441Z,102200.30
2018-09-10T05:24:41.735Z,102201.00
2018-09-10T05:25:42.163Z,102202.04
2018-09-10T05:26:42.461Z,102203.16
2018-09-10T05:27:42.950Z,102203.78
2018-09-10T05:28:43.220Z,102204.07
2018-09-10T05:28:52.284Z,102216.63
2018-09-10T05:29:52.667Z,102212.45
2018-09-10T05:30:53.976Z,102211.94
2018-09-10T05:31:54.218Z,102211.61
2018-09-10T05:32:54.448Z,102211.41
2018-09-10T05:33:54.892Z,102211.66
2018-09-10T05:34:55.407Z,102211.80
2018-09-10T05:35:55.766Z,102211.69
2018-09-10T05:36:56.004Z,102212.00
2018-09-10T05:37:56.298Z,102211.80
2018-09-10T05:38:57.234Z,102212.07
2018-09-10T05:39:57.657Z,102212.63
2018-09-10T05:40:57.943Z,102212.86
2018-09-10T05:41:58.401Z,102213.39
2018-09-10T05:42:58.763Z,102213.95
2018-09-10T05:43:59.361Z,102214.09
2018-09-10T05:44:59.862Z,102214.70
2018-09-10T05:46:00.142Z,102215.44
2018-09-10T05:47:00.383Z,102216.02
2018-09-10T05:48:00.960Z,102217.44
2018-09-10T05:49:01.243Z,102218.98
2018-09-10T05:50:01.671Z,102220.70
2018-09-10T05:51:01.962Z,102222.77
2018-09-10T05:52:02.329Z,102224.48
2018-09-10T05:53:02.638Z,102226.54
2018-09-10T05:54:03.152Z,102228.94
2018-09-10T05:55:03.539Z,102230.89
2018-09-10T05:56:03.778Z,102232.95
2018-09-10T05:57:04.050Z,102235.33
2018-09-10T05:58:04.568Z,102237.73
2018-09-10T05:59:05.022Z,102240.45
2018-09-10T06:00:05.363Z,102243.00
2018-09-10T06:01:05.709Z,102245.55
2018-09-10T06:02:06.004Z,102248.62
2018-09-10T06:03:06.480Z,102250.37
2018-09-10T06:04:07.009Z,102252.12
2018-09-10T06:05:07.295Z,102253.70
2018-09-10T06:06:08.899Z,102255.94
2018-09-10T06:07:08.195Z,102258.16
2018-09-10T06:08:07.504Z,102260.22
2018-09-10T06:09:08.902Z,102262.03
2018-09-10T06:10:09.192Z,102263.66
2018-09-10T06:11:09.656Z,102265.55
2018-09-10T06:12:09.691Z,102266.93
2018-09-10T06:13:11.154Z,102268.42
2018-09-10T06:14:10.486Z,102270.06
2018-09-10T06:14:21.521Z,102294.77
2018-09-10T06:15:21.044Z,102288.73
2018-09-10T06:16:21.357Z,102289.06
2018-09-10T06:17:21.934Z,102289.45
2018-09-10T06:18:22.428Z,102289.89
2018-09-10T06:19:22.714Z,102289.80
2018-09-10T06:20:23.018Z,102290.70
2018-09-10T06:21:23.724Z,102290.19
2018-09-10T06:22:24.314Z,102289.31
2018-09-10T06:23:24.890Z,102288.48
2018-09-10T06:24:25.474Z,102288.11
2018-09-10T06:25:25.735Z,102287.28
2018-09-10T06:26:26.175Z,102286.20
2018-09-10T06:27:26.675Z,102284.83
2018-09-10T06:28:27.060Z,102283.55
2018-09-10T06:29:27.463Z,102282.55
2018-09-10T06:30:28.044Z,102281.56
2018-09-10T06:31:28.295Z,102279.52
2018-09-10T06:32:28.739Z,102278.98
2018-09-10T06:33:29.310Z,102277.08
2018-09-10T06:34:29.599Z,102275.53
2018-09-10T06:35:29.845Z,102274.37
2018-09-10T06:36:30.113Z,102273.66
2018-09-10T06:37:30.714Z,102272.49
2018-09-10T06:38:31.322Z,102271.73
2018-09-10T06:39:31.627Z,102271.19
2018-09-10T06:40:31.917Z,102270.59
2018-09-10T06:41:32.382Z,102269.62
2018-09-10T06:42:32.731Z,102268.91
2018-09-10T06:43:32.107Z,102267.84
2018-09-10T06:44:33.845Z,102266.78
2018-09-10T06:45:34.448Z,102266.14
2018-09-10T06:46:34.805Z,102265.84
2018-09-10T06:47:35.079Z,102265.30
2018-09-10T06:48:35.632Z,102264.33
2018-09-10T06:49:35.925Z,102264.33
2018-09-10T06:50:36.377Z,102263.36
2018-09-10T06:51:36.746Z,102262.77
2018-09-10T06:52:37.202Z,102261.77
2018-09-10T06:53:37.783Z,102260.83
2018-09-10T06:54:38.196Z,102260.03
2018-09-10T06:55:38.734Z,102258.97
2018-09-10T06:56:39.020Z,102258.30
2018-09-10T06:57:39.343Z,102256.80
2018-09-10T06:58:39.710Z,102255.44
2018-09-10T06:58:47.849Z,102229.53
2018-09-10T06:59:47.904Z,102234.70
2018-09-10T07:00:49.257Z,102234.13
2018-09-10T07:01:49.682Z,102233.22
2018-09-10T07:02:50.242Z,102232.88
2018-09-10T07:03:50.721Z,102232.22
2018-09-10T07:04:51.257Z,102232.11
2018-09-10T07:05:51.657Z,102231.50
2018-09-10T07:06:52.053Z,102231.14
2018-09-10T07:07:52.745Z,102231.39
2018-09-10T07:08:53.239Z,102231.63
2018-09-10T07:09:53.612Z,102232.29
2018-09-10T07:10:54.039Z,102233.33
2018-09-10T07:11:54.353Z,102233.86
2018-09-10T07:12:54.854Z,102235.17
2018-09-10T07:13:54.140Z,102236.13
2018-09-10T07:14:56.120Z,102236.78
2018-09-10T07:15:56.363Z,102238.13
2018-09-10T07:16:56.696Z,102239.06
2018-09-10T07:17:57.079Z,102240.20
2018-09-10T07:18:57.667Z,102240.88
2018-09-10T07:19:57.017Z,102242.11
2018-09-10T07:20:58.681Z,102243.92
2018-09-10T07:21:58.926Z,102245.08
2018-09-10T07:22:59.333Z,102246.31
2018-09-10T07:24:00.108Z,102247.54
2018-09-10T07:25:00.385Z,102248.60
2018-09-10T07:26:00.736Z,102249.63
2018-09-10T07:27:01.085Z,102250.11
2018-09-10T07:28:01.321Z,102250.16
2018-09-10T07:29:02.043Z,102250.90
2018-09-10T07:30:02.619Z,102251.85
2018-09-10T07:31:02.819Z,102252.34
2018-09-10T07:32:03.097Z,102253.80
2018-09-10T07:33:03.538Z,102254.55
2018-09-10T07:34:04.835Z,102255.33
2018-09-10T07:35:04.158Z,102257.06
2018-09-10T07:36:04.687Z,102258.03
2018-09-10T07:37:05.148Z,102259.25
2018-09-10T07:38:05.468Z,102260.36
2018-09-10T07:39:05.901Z,102261.20
2018-09-10T07:40:06.416Z,102262.04
2018-09-10T07:41:06.795Z,102263.30
2018-09-10T07:42:07.219Z,102264.14
2018-09-10T07:43:07.759Z,102265.36
2018-09-10T07:44:08.115Z,102266.41
2018-09-10T07:45:08.411Z,102267.92
2018-09-10T07:45:16.736Z,102292.91
2018-09-10T07:46:18.380Z,102291.97
2018-09-10T07:47:18.889Z,102291.58
2018-09-10T07:48:19.454Z,102291.33
2018-09-10T07:49:19.935Z,102290.95
2018-09-10T07:50:20.398Z,102290.48
2018-09-10T07:51:21.229Z,102289.72
2018-09-10T07:52:21.415Z,102289.25
2018-09-10T07:53:21.840Z,102288.52
2018-09-10T07:54:22.353Z,102287.84
2018-09-10T07:55:22.648Z,102287.12
2018-09-10T07:56:23.074Z,102286.34
2018-09-10T07:57:23.502Z,102285.41
2018-09-10T07:58:24.213Z,102284.20
2018-09-10T07:59:24.576Z,102282.84
2018-09-10T08:00:24.992Z,102281.95
2018-09-10T08:01:25.904Z,102280.40
2018-09-10T08:02:25.306Z,102279.24
2018-09-10T08:03:27.216Z,102278.43
2018-09-10T08:04:27.979Z,102277.95
2018-09-10T08:05:28.272Z,102277.22
2018-09-10T08:06:28.613Z,102276.23
2018-09-10T08:07:28.901Z,102275.50
2018-09-10T08:08:29.544Z,102275.25
2018-09-10T08:09:29.868Z,102275.77
2018-09-10T08:10:29.186Z,102276.06
2018-09-10T08:11:30.666Z,102275.55
2018-09-10T08:12:31.083Z,102275.50
2018-09-10T08:13:31.423Z,102275.60
2018-09-10T08:14:31.707Z,102276.28
2018-09-10T08:15:32.463Z,102276.20
2018-09-10T08:16:32.956Z,102276.83
2018-09-10T08:17:33.421Z,102277.81
2018-09-10T08:18:33.772Z,102277.34
2018-09-10T08:19:34.288Z,102276.95
2018-09-10T08:20:34.760Z,102276.64
2018-09-10T08:21:35.492Z,102276.00
2018-09-10T08:22:36.038Z,102275.61
2018-09-10T08:23:35.252Z,102274.69
2018-09-10T08:24:36.923Z,102273.92
2018-09-10T08:25:37.265Z,102274.03
2018-09-10T08:26:37.889Z,102274.30
2018-09-10T08:27:38.319Z,102274.16
2018-09-10T08:28:38.592Z,102274.20
2018-09-10T08:29:38.912Z,102274.43
2018-09-10T08:30:39.272Z,102274.73
2018-09-10T08:30:47.680Z,102275.79
2018-09-10T08:31:49.203Z,102275.79
2018-09-10T08:32:49.812Z,102275.41
2018-09-10T08:33:50.117Z,102274.97
2018-09-10T08:34:50.599Z,102274.53
2018-09-10T08:35:51.132Z,102273.27
2018-09-10T08:36:51.694Z,102272.47
2018-09-10T08:37:52.560Z,102271.63
2018-09-10T08:38:53.069Z,102270.52
2018-09-10T08:39:52.840Z,102269.75
2018-09-10T08:40:54.185Z,102267.98
2018-09-10T08:41:54.512Z,102266.27
2018-09-10T08:42:54.906Z,102264.98
2018-09-10T08:43:54.338Z,102262.97
2018-09-10T08:44:55.845Z,102261.39
2018-09-10T08:45:56.486Z,102260.05
2018-09-10T08:46:56.966Z,102258.23
2018-09-10T08:47:57.427Z,102256.84
2018-09-10T08:48:57.743Z,102255.09
2018-09-10T08:49:58.107Z,102253.70
2018-09-10T08:50:58.386Z,102251.89
2018-09-10T08:51:58.760Z,102250.31
2018-09-10T08:52:59.197Z,102249.16
2018-09-10T08:53:59.710Z,102247.52
2018-09-10T08:54:59.491Z,102246.61
2018-09-10T08:55:59.685Z,102245.27
2018-09-10T08:56:59.724Z,102244.93
2018-09-10T08:58:01.088Z,102244.33
2018-09-10T08:59:01.391Z,102243.60
2018-09-10T09:00:01.671Z,102243.06
2018-09-10T09:01:02.132Z,102242.47
2018-09-10T09:02:02.866Z,102241.85
2018-09-10T09:03:02.137Z,102241.43
2018-09-10T09:04:03.428Z,102241.09
2018-09-10T09:05:04.139Z,102241.21
2018-09-10T09:06:04.686Z,102241.85
2018-09-10T09:07:03.687Z,102242.38
2018-09-10T09:08:05.389Z,102243.11
2018-09-10T09:09:04.730Z,102243.95
2018-09-10T09:10:06.020Z,102244.55
2018-09-10T09:11:06.454Z,102245.16
2018-09-10T09:12:07.327Z,102245.25
2018-09-10T09:13:07.678Z,102245.48
2018-09-10T09:14:08.140Z,102245.38
2018-09-10T09:15:08.449Z,102245.59
2018-09-10T09:16:08.738Z,102245.22
2018-09-10T09:17:08.997Z,102245.52
2018-09-10T09:18:09.339Z,102245.36
2018-09-10T09:19:09.664Z,102244.94
2018-09-10T09:20:10.237Z,102243.97
2018-09-10T09:20:18.310Z,102243.84
2018-09-10T09:21:19.385Z,102243.41
2018-09-10T09:22:18.739Z,102243.13
2018-09-10T09:23:20.548Z,102242.63
2018-09-10T09:24:19.788Z,102242.77
2018-09-10T09:25:21.797Z,102242.25
2018-09-10T09:26:22.305Z,102242.42
2018-09-10T09:27:21.678Z,102242.22
2018-09-10T09:28:23.300Z,102242.95
2018-09-10T09:29:23.878Z,102243.17
2018-09-10T09:30:24.333Z,102243.67
2018-09-10T09:31:24.701Z,102244.36
2018-09-10T09:32:25.001Z,102244.14
2018-09-10T09:33:25.497Z,102243.95
2018-09-10T09:34:25.977Z,102243.82
2018-09-10T09:35:26.362Z,102243.52
2018-09-10T09:36:26.714Z,102242.80
2018-09-10T09:37:27.395Z,102242.03
2018-09-10T09:38:27.665Z,102241.83
2018-09-10T09:39:28.150Z,102241.77
2018-09-10T09:40:27.495Z,102240.98
2018-09-10T09:41:29.234Z,102240.58
2018-09-10T09:42:29.725Z,102240.20
2018-09-10T09:43:30.555Z,102239.72
2018-09-10T09:44:29.987Z,102239.20
2018-09-10T09:45:31.330Z,102239.09
2018-09-10T09:46:31.692Z,102238.50
2018-09-10T09:47:32.016Z,102238.46
2018-09-10T09:48:32.453Z,102237.88
2018-09-10T09:49:33.125Z,102237.06
2018-09-10T09:50:33.714Z,102236.43
2018-09-10T09:51:34.702Z,102236.21
2018-09-10T09:52:35.260Z,102235.45
2018-09-10T09:53:36.126Z,102234.94
2018-09-10T09:54:36.410Z,102233.84
2018-09-10T09:55:36.843Z,102232.86
2018-09-10T09:56:37.273Z,102232.34
2018-09-10T09:57:36.680Z,102232.05
2018-09-10T09:58:38.110Z,102231.39
2018-09-10T09:59:38.546Z,102230.13
2018-09-10T10:00:39.296Z,102229.27
2018-09-10T10:01:39.611Z,102228.37
2018-09-10T10:02:39.163Z,102227.59
2018-09-10T10:03:40.495Z,102226.78
2018-09-10T10:04:40.841Z,102226.11
2018-09-10T10:05:40.032Z,102225.58
2018-09-10T10:06:41.384Z,102224.60
2018-09-10T10:07:41.764Z,102224.22
2018-09-10T10:08:42.247Z,102222.94
2018-09-10T10:09:42.507Z,102222.57
2018-09-10T10:09:50.856Z,102204.29
2018-09-10T10:10:52.141Z,102204.29
2018-09-10T10:11:52.826Z,102204.39
2018-09-10T10:12:52.061Z,102204.53
2018-09-10T10:13:53.418Z,102204.53
2018-09-10T10:14:53.717Z,102204.09
2018-09-10T10:15:54.000Z,102204.20
2018-09-10T10:16:54.664Z,102204.39
2018-09-10T10:17:55.177Z,102203.84
2018-09-10T10:18:56.105Z,102203.70
2018-09-10T10:19:56.412Z,102203.37
2018-09-10T10:20:56.728Z,102202.76
2018-09-10T10:21:57.001Z,102202.22
2018-09-10T10:22:57.042Z,102201.92
2018-09-10T10:23:57.385Z,102201.49
2018-09-10T10:24:58.017Z,102200.48
2018-09-10T10:25:58.375Z,102200.20
2018-09-10T10:26:59.008Z,102199.63
2018-09-10T10:27:59.462Z,102199.20
2018-09-10T10:28:59.798Z,102198.56
2018-09-10T10:29:59.872Z,102197.86
2018-09-10T10:31:00.177Z,102197.61
2018-09-10T10:32:00.689Z,102197.41
2018-09-10T10:33:01.062Z,102196.78
2018-09-10T10:34:01.572Z,102196.34
2018-09-10T10:35:01.833Z,102195.34
2018-09-10T10:36:02.194Z,102194.30
2018-09-10T10:37:02.994Z,102193.39
2018-09-10T10:38:03.320Z,102192.66
2018-09-10T10:39:03.825Z,102191.61
2018-09-10T10:40:04.136Z,102190.65
2018-09-10T10:41:04.424Z,102189.61
2018-09-10T10:42:04.968Z,102188.85
2018-09-10T10:43:05.352Z,102187.61
2018-09-10T10:44:05.677Z,102186.16
2018-09-10T10:45:06.017Z,102185.30
2018-09-10T10:46:06.352Z,102184.59
2018-09-10T10:47:06.668Z,102183.94
2018-09-10T10:48:07.053Z,102183.47
2018-09-10T10:49:07.704Z,102182.48
2018-09-10T10:50:08.118Z,102182.37
2018-09-10T10:51:08.680Z,102181.70
2018-09-10T10:52:08.968Z,102181.09
2018-09-10T10:53:09.552Z,102179.59
2018-09-10T10:54:10.026Z,102179.09
2018-09-10T10:55:10.694Z,102177.80
2018-09-10T10:56:11.131Z,102176.63
2018-09-10T10:56:19.180Z,102167.41
2018-09-10T10:57:19.815Z,102166.64
2018-09-10T10:58:21.423Z,102166.04
2018-09-10T10:59:21.719Z,102165.61
2018-09-10T11:00:21.983Z,102164.71
2018-09-10T11:01:22.522Z,102164.30
2018-09-10T11:02:22.830Z,102163.87
2018-09-10T11:03:23.185Z,102163.47
2018-09-10T11:04:23.523Z,102162.98
2018-09-10T11:05:23.818Z,102162.84
2018-09-10T11:06:24.559Z,102162.05
2018-09-10T11:07:24.795Z,102161.83
2018-09-10T11:08:25.623Z,102161.51
2018-09-10T11:09:25.997Z,102161.61
2018-09-10T11:10:26.399Z,102160.92
2018-09-10T11:11:26.727Z,102160.44
2018-09-10T11:12:27.208Z,102159.84
2018-09-10T11:13:28.084Z,102158.66
2018-09-10T11:14:28.981Z,102158.25
2018-09-10T11:15:29.600Z,102157.16
2018-09-10T11:16:30.097Z,102155.80